PWSweather.com
Personal Weather Stations
Station Observations
SHAHALMS1
Eftra, Falkenberg, HA

EftraFalkenberg, HA

Lat: 56.85, Lon: 12.65

Elevation: 140

Station Type:

http://hem.passagen.se/risarp101

High Low Average
Temperature 78.1°F25.6°F 57.9°F14.4°F 65.8°F18.8°F
Dew Point 62.4°F16.9°F 49.8°F9.9°F 54.9°F12.7°F
Winds 12.2 mph -19.6 mph - Calm Calm 4.8 mph 7.7 mph
Wind Gusts 33.3 mph53.6 mph -- 12.2 mph19.6 mph
Humidity 90% 49% 69%
Pressure 30.12 in1020.00 in 29.92 in1013.20 in -
Precipitation 0.00 in0.00 in - -
Hour Temp Dew Point Humidity Winds Wind Gusts Pressure Precip Precip Rate Daily Precip Total
12:00 AM 60.1°F15.6°C 56.8°F13.8°C 89% Calm Calm -- 30.12 in1020.0 mb 0.00 in0.0 mm 0.00 in0.0 mm 0.00 in0.0 mm
12:10 AM 60.1°F15.6°C 56.5°F13.6°C 88% Calm Calm -- 30.12 in1020.0 mb 0.00 in0.0 mm 0.00 in0.0 mm 0.00 in0.0 mm
12:20 AM 60.1°F15.6°C 56.8°F13.8°C 89% 1.0 mph E1.6 kmh E 4.7 mph7.6 kmh 30.12 in1020.0 mb 0.00 in0.0 mm 0.00 in0.0 mm 0.00 in0.0 mm
12:30 AM 60.1°F15.6°C 56.8°F13.8°C 89% 1.6 mph E2.6 kmh E 6.8 mph10.9 kmh 30.09 in1019.0 mb 0.00 in0.0 mm 0.00 in0.0 mm 0.00 in0.0 mm
12:40 AM 60.3°F15.7°C 57.3°F14.1°C 90% 5.5 mph E8.9 kmh E 9.7 mph15.6 kmh 30.09 in1019.0 mb 0.00 in0.0 mm 0.00 in0.0 mm 0.00 in0.0 mm
12:50 AM 60.1°F15.6°C 57.1°F13.9°C 90% 5.4 mph E8.7 kmh E 9.3 mph15.0 kmh 30.09 in1019.0 mb 0.00 in0.0 mm 0.00 in0.0 mm 0.00 in0.0 mm
01:00 AM 59.7°F15.4°C 56.5°F13.6°C 89% 1.5 mph E2.4 kmh E 6.4 mph10.3 kmh 30.12 in1020.0 mb 0.00 in0.0 mm 0.00 in0.0 mm 0.00 in0.0 mm
01:10 AM 59.4°F15.2°C 55.8°F13.2°C 88% 1.6 mph E2.6 kmh E 6.4 mph10.3 kmh 30.12 in1020.0 mb 0.00 in0.0 mm 0.00 in0.0 mm 0.00 in0.0 mm
01:20 AM 59.2°F15.1°C 55.6°F13.1°C 88% 1.2 mph SE1.9 kmh SE 6.8 mph10.9 kmh 30.09 in1019.0 mb 0.00 in0.0 mm 0.00 in0.0 mm 0.00 in0.0 mm
01:30 AM 59.2°F15.1°C 55.6°F13.1°C 88% 4.3 mph E6.9 kmh E 8.6 mph13.8 kmh 30.09 in1019.0 mb 0.00 in0.0 mm 0.00 in0.0 mm 0.00 in0.0 mm
01:40 AM 59.2°F15.1°C 55.6°F13.1°C 88% 3.0 mph E4.8 kmh E 7.5 mph12.1 kmh 30.09 in1019.0 mb 0.00 in0.0 mm 0.00 in0.0 mm 0.00 in0.0 mm
01:50 AM 59.0°F15.0°C 55.4°F13.0°C 88% Calm Calm -- 30.09 in1019.0 mb 0.00 in0.0 mm 0.00 in0.0 mm 0.00 in0.0 mm
02:00 AM 59.2°F15.1°C 55.6°F13.1°C 88% 1.0 mph E1.6 kmh E 5.7 mph9.2 kmh 30.09 in1019.0 mb 0.00 in0.0 mm 0.00 in0.0 mm 0.00 in0.0 mm
02:10 AM 59.4°F15.2°C 55.8°F13.2°C 88% 2.8 mph E4.5 kmh E 8.9 mph14.3 kmh 30.09 in1019.0 mb 0.00 in0.0 mm 0.00 in0.0 mm 0.00 in0.0 mm
02:20 AM 59.4°F15.2°C 55.5°F13.1°C 87% 2.6 mph E4.2 kmh E 9.7 mph15.6 kmh 30.07 in1018.3 mb 0.00 in0.0 mm 0.00 in0.0 mm 0.00 in0.0 mm
02:30 AM 59.4°F15.2°C 55.2°F12.9°C 86% 0.8 mph E1.3 kmh E 5.7 mph9.2 kmh 30.09 in1019.0 mb 0.00 in0.0 mm 0.00 in0.0 mm 0.00 in0.0 mm
02:40 AM 59.0°F15.0°C 54.5°F12.5°C 85% 0.5 mph ENE0.8 kmh ENE 5.4 mph8.7 kmh 30.09 in1019.0 mb 0.00 in0.0 mm 0.00 in0.0 mm 0.00 in0.0 mm
02:50 AM 59.0°F15.0°C 54.2°F12.3°C 84% 2.9 mph N4.7 kmh N 9.7 mph15.6 kmh 30.09 in1019.0 mb 0.00 in0.0 mm 0.00 in0.0 mm 0.00 in0.0 mm
03:00 AM 58.5°F14.7°C 53.6°F12.0°C 84% 0.5 mph E0.8 kmh E 6.1 mph9.8 kmh 30.09 in1019.0 mb 0.00 in0.0 mm 0.00 in0.0 mm 0.00 in0.0 mm
03:10 AM 58.3°F14.6°C 54.1°F12.3°C 86% 2.9 mph E4.7 kmh E 8.6 mph13.8 kmh 30.09 in1019.0 mb 0.00 in0.0 mm 0.00 in0.0 mm 0.00 in0.0 mm
03:20 AM 58.5°F14.7°C 54.6°F12.6°C 87% 0.6 mph E1.0 kmh E 6.1 mph9.8 kmh 30.09 in1019.0 mb 0.00 in0.0 mm 0.00 in0.0 mm 0.00 in0.0 mm
03:30 AM 58.3°F14.6°C 54.4°F12.4°C 87% 0.3 mph E0.5 kmh E 3.9 mph6.3 kmh 30.07 in1018.3 mb 0.00 in0.0 mm 0.00 in0.0 mm 0.00 in0.0 mm
03:40 AM 57.9°F14.4°C 54.1°F12.3°C 87% 3.7 mph E6.0 kmh E 10.0 mph16.1 kmh 30.07 in1018.3 mb 0.00 in0.0 mm 0.00 in0.0 mm 0.00 in0.0 mm
03:50 AM 57.9°F14.4°C 54.1°F12.3°C 87% 2.4 mph ESE3.9 kmh ESE 8.6 mph13.8 kmh 30.07 in1018.3 mb 0.00 in0.0 mm 0.00 in0.0 mm 0.00 in0.0 mm
04:00 AM 58.3°F14.6°C 54.4°F12.4°C 87% 5.0 mph E8.0 kmh E 11.1 mph17.9 kmh 30.07 in1018.3 mb 0.00 in0.0 mm 0.00 in0.0 mm 0.00 in0.0 mm
04:10 AM 58.8°F14.9°C 55.3°F12.9°C 88% 3.3 mph E5.3 kmh E 10.4 mph16.7 kmh 30.07 in1018.3 mb 0.00 in0.0 mm 0.00 in0.0 mm 0.00 in0.0 mm
04:20 AM 59.2°F15.1°C 55.6°F13.1°C 88% 3.7 mph E6.0 kmh E 11.5 mph18.5 kmh 30.04 in1017.3 mb 0.00 in0.0 mm 0.00 in0.0 mm 0.00 in0.0 mm
04:30 AM 59.7°F15.4°C 55.8°F13.2°C 87% 3.4 mph E5.5 kmh E 10.4 mph16.7 kmh 30.07 in1018.3 mb 0.00 in0.0 mm 0.00 in0.0 mm 0.00 in0.0 mm
04:40 AM 60.1°F15.6°C 55.9°F13.3°C 86% 3.5 mph E5.6 kmh E 8.9 mph14.3 kmh 30.07 in1018.3 mb 0.00 in0.0 mm 0.00 in0.0 mm 0.00 in0.0 mm
04:50 AM 60.6°F15.9°C 55.8°F13.2°C 84% 3.7 mph E6.0 kmh E 9.3 mph15.0 kmh 30.09 in1019.0 mb 0.00 in0.0 mm 0.00 in0.0 mm 0.00 in0.0 mm
05:00 AM 60.8°F16.0°C 55.3°F12.9°C 82% 4.6 mph E7.4 kmh E 10.4 mph16.7 kmh 30.07 in1018.3 mb 0.00 in0.0 mm 0.00 in0.0 mm 0.00 in0.0 mm
05:10 AM 60.8°F16.0°C 54.6°F12.6°C 80% 4.7 mph E7.6 kmh E 11.5 mph18.5 kmh 30.07 in1018.3 mb 0.00 in0.0 mm 0.00 in0.0 mm 0.00 in0.0 mm
05:20 AM 61.0°F16.1°C 54.8°F12.7°C 80% 3.8 mph E6.1 kmh E 8.6 mph13.8 kmh 30.07 in1018.3 mb 0.00 in0.0 mm 0.00 in0.0 mm 0.00 in0.0 mm
05:30 AM 61.3°F16.3°C 54.8°F12.7°C 79% 3.7 mph E6.0 kmh E 10.0 mph16.1 kmh 30.07 in1018.3 mb 0.00 in0.0 mm 0.00 in0.0 mm 0.00 in0.0 mm
05:40 AM 61.5°F16.4°C 54.9°F12.7°C 79% 3.5 mph E5.6 kmh E 8.9 mph14.3 kmh 30.07 in1018.3 mb 0.00 in0.0 mm 0.00 in0.0 mm 0.00 in0.0 mm
05:50 AM 61.9°F16.6°C 55.3°F12.9°C 79% 2.8 mph E4.5 kmh E 7.9 mph12.7 kmh 30.07 in1018.3 mb 0.00 in0.0 mm 0.00 in0.0 mm 0.00 in0.0 mm
06:00 AM 62.4°F16.9°C 55.8°F13.2°C 79% 3.2 mph E5.1 kmh E 8.9 mph14.3 kmh 30.07 in1018.3 mb 0.00 in0.0 mm 0.00 in0.0 mm 0.00 in0.0 mm
06:10 AM 62.8°F17.1°C 55.5°F13.1°C 77% 3.1 mph E5.0 kmh E 8.9 mph14.3 kmh 30.07 in1018.3 mb 0.00 in0.0 mm 0.00 in0.0 mm 0.00 in0.0 mm
06:20 AM 63.1°F17.3°C 55.1°F12.8°C 75% 1.6 mph E2.6 kmh E 7.9 mph12.7 kmh 30.07 in1018.3 mb 0.00 in0.0 mm 0.00 in0.0 mm 0.00 in0.0 mm
06:30 AM 63.5°F17.5°C 55.8°F13.2°C 76% 3.5 mph E5.6 kmh E 10.0 mph16.1 kmh 30.04 in1017.3 mb 0.00 in0.0 mm 0.00 in0.0 mm 0.00 in0.0 mm
06:40 AM 63.7°F17.6°C 55.6°F13.1°C 75% 1.2 mph NE1.9 kmh NE 10.7 mph17.2 kmh 30.04 in1017.3 mb 0.00 in0.0 mm 0.00 in0.0 mm 0.00 in0.0 mm
06:50 AM 64.6°F18.1°C 56.8°F13.8°C 76% 1.4 mph ENE2.3 kmh ENE 8.6 mph13.8 kmh 30.04 in1017.3 mb 0.00 in0.0 mm 0.00 in0.0 mm 0.00 in0.0 mm
07:00 AM 65.1°F18.4°C 57.0°F13.9°C 75% 2.3 mph ENE3.7 kmh ENE 9.3 mph15.0 kmh 30.04 in1017.3 mb 0.00 in0.0 mm 0.00 in0.0 mm 0.00 in0.0 mm
07:10 AM 66.0°F18.9°C 57.9°F14.4°C 75% 5.1 mph E8.2 kmh E 11.8 mph19.0 kmh 30.04 in1017.3 mb 0.00 in0.0 mm 0.00 in0.0 mm 0.00 in0.0 mm
07:20 AM 67.1°F19.5°C 57.8°F14.3°C 72% 5.5 mph E8.9 kmh E 11.8 mph19.0 kmh 30.04 in1017.3 mb 0.00 in0.0 mm 0.00 in0.0 mm 0.00 in0.0 mm
07:30 AM 68.2°F20.1°C 58.8°F14.9°C 72% 3.1 mph E5.0 kmh E 9.3 mph15.0 kmh 30.04 in1017.3 mb 0.00 in0.0 mm 0.00 in0.0 mm 0.00 in0.0 mm
07:40 AM 69.4°F20.8°C 59.6°F15.3°C 71% 3.2 mph E5.1 kmh E 9.3 mph15.0 kmh 30.04 in1017.3 mb 0.00 in0.0 mm 0.00 in0.0 mm 0.00 in0.0 mm
07:50 AM 70.7°F21.5°C 60.4°F15.8°C 70% 4.9 mph E7.9 kmh E 12.5 mph20.1 kmh 30.04 in1017.3 mb 0.00 in0.0 mm 0.00 in0.0 mm 0.00 in0.0 mm
08:00 AM 72.7°F22.6°C 59.8°F15.4°C 64% 6.1 mph E9.8 kmh E 12.9 mph20.8 kmh 30.04 in1017.3 mb 0.00 in0.0 mm 0.00 in0.0 mm 0.00 in0.0 mm
08:10 AM 74.1°F23.4°C 60.7°F15.9°C 63% 7.7 mph E12.4 kmh E 16.1 mph25.9 kmh 30.04 in1017.3 mb 0.00 in0.0 mm 0.00 in0.0 mm 0.00 in0.0 mm
08:20 AM 75.2°F24.0°C 60.4°F15.8°C 60% 7.9 mph E12.7 kmh E 15.7 mph25.3 kmh 30.04 in1017.3 mb 0.00 in0.0 mm 0.00 in0.0 mm 0.00 in0.0 mm
08:30 AM 76.3°F24.6°C 60.9°F16.1°C 59% 8.6 mph E13.8 kmh E 20.0 mph32.2 kmh 30.04 in1017.3 mb 0.00 in0.0 mm 0.00 in0.0 mm 0.00 in0.0 mm
08:40 AM 76.8°F24.9°C 60.9°F16.1°C 58% 8.3 mph E13.4 kmh E 16.5 mph26.6 kmh 30.04 in1017.3 mb 0.00 in0.0 mm 0.00 in0.0 mm 0.00 in0.0 mm
08:50 AM 76.6°F24.8°C 60.3°F15.7°C 57% 9.7 mph E15.6 kmh E 19.3 mph31.1 kmh 30.04 in1017.3 mb 0.00 in0.0 mm 0.00 in0.0 mm 0.00 in0.0 mm
09:00 AM 76.8°F24.9°C 60.9°F16.1°C 58% 10.3 mph E16.6 kmh E 19.0 mph30.6 kmh 30.04 in1017.3 mb 0.00 in0.0 mm 0.00 in0.0 mm 0.00 in0.0 mm
09:10 AM 77.4°F25.2°C 62.4°F16.9°C 60% 7.9 mph ESE12.7 kmh ESE 19.3 mph31.1 kmh 30.04 in1017.3 mb 0.00 in0.0 mm 0.00 in0.0 mm 0.00 in0.0 mm
09:20 AM 77.7°F25.4°C 60.8°F16.0°C 56% 9.3 mph ESE15.0 kmh ESE 17.5 mph28.2 kmh 30.04 in1017.3 mb 0.00 in0.0 mm 0.00 in0.0 mm 0.00 in0.0 mm
09:30 AM 78.1°F25.6°C 59.6°F15.3°C 53% 9.9 mph ESE15.9 kmh ESE 22.9 mph36.9 kmh 30.04 in1017.3 mb 0.00 in0.0 mm 0.00 in0.0 mm 0.00 in0.0 mm
09:40 AM 78.1°F25.6°C 59.6°F15.3°C 53% 8.9 mph SE14.3 kmh SE 19.0 mph30.6 kmh 30.04 in1017.3 mb 0.00 in0.0 mm 0.00 in0.0 mm 0.00 in0.0 mm
09:50 AM 78.1°F25.6°C 60.1°F15.6°C 54% 8.8 mph ESE14.2 kmh ESE 19.0 mph30.6 kmh 30.04 in1017.3 mb 0.00 in0.0 mm 0.00 in0.0 mm 0.00 in0.0 mm
10:00 AM 77.9°F25.5°C 58.9°F14.9°C 52% 8.0 mph ESE12.9 kmh ESE 21.8 mph35.1 kmh 30.04 in1017.3 mb 0.00 in0.0 mm 0.00 in0.0 mm 0.00 in0.0 mm
10:10 AM 77.4°F25.2°C 58.9°F14.9°C 53% 9.5 mph SE15.3 kmh SE 23.3 mph37.5 kmh 30.04 in1017.3 mb 0.00 in0.0 mm 0.00 in0.0 mm 0.00 in0.0 mm
10:20 AM 77.2°F25.1°C 58.2°F14.6°C 52% 6.3 mph ESE10.1 kmh ESE 15.4 mph24.8 kmh 30.04 in1017.3 mb 0.00 in0.0 mm 0.00 in0.0 mm 0.00 in0.0 mm
10:30 AM 77.0°F25.0°C 58.0°F14.4°C 52% 8.6 mph ESE13.8 kmh ESE 19.0 mph30.6 kmh 30.04 in1017.3 mb 0.00 in0.0 mm 0.00 in0.0 mm 0.00 in0.0 mm
10:40 AM 77.0°F25.0°C 58.6°F14.8°C 53% 6.5 mph ESE10.5 kmh ESE 15.7 mph25.3 kmh 30.04 in1017.3 mb 0.00 in0.0 mm 0.00 in0.0 mm 0.00 in0.0 mm
10:50 AM 77.0°F25.0°C 58.0°F14.4°C 52% 5.8 mph ESE9.3 kmh ESE 16.8 mph27.0 kmh 29.98 in1015.2 mb 0.00 in0.0 mm 0.00 in0.0 mm 0.00 in0.0 mm
11:00 AM 77.9°F25.5°C 60.9°F16.1°C 56% 6.9 mph ESE11.1 kmh ESE 14.7 mph23.7 kmh 30.01 in1016.3 mb 0.00 in0.0 mm 0.00 in0.0 mm 0.00 in0.0 mm
11:10 AM 77.9°F25.5°C 58.3°F14.6°C 51% 10.3 mph ESE16.6 kmh ESE 19.7 mph31.7 kmh 30.01 in1016.3 mb 0.00 in0.0 mm 0.00 in0.0 mm 0.00 in0.0 mm
11:20 AM 77.7°F25.4°C 59.2°F15.1°C 53% 8.1 mph ESE13.0 kmh ESE 16.1 mph25.9 kmh 30.01 in1016.3 mb 0.00 in0.0 mm 0.00 in0.0 mm 0.00 in0.0 mm
11:30 AM 77.5°F25.3°C 59.1°F15.1°C 53% 5.8 mph ESE9.3 kmh ESE 15.7 mph25.3 kmh 30.01 in1016.3 mb 0.00 in0.0 mm 0.00 in0.0 mm 0.00 in0.0 mm
11:40 AM 77.9°F25.5°C 59.9°F15.5°C 54% 6.4 mph E10.3 kmh E 11.5 mph18.5 kmh 30.01 in1016.3 mb 0.00 in0.0 mm 0.00 in0.0 mm 0.00 in0.0 mm
11:50 AM 77.5°F25.3°C 58.5°F14.7°C 52% 8.3 mph ESE13.4 kmh ESE 20.0 mph32.2 kmh 30.01 in1016.3 mb 0.00 in0.0 mm 0.00 in0.0 mm 0.00 in0.0 mm
12:00 PM 76.8°F24.9°C 58.4°F14.7°C 53% 7.3 mph E11.7 kmh E 14.0 mph22.5 kmh 30.04 in1017.3 mb 0.00 in0.0 mm 0.00 in0.0 mm 0.00 in0.0 mm
12:10 PM 76.1°F24.5°C 56.1°F13.4°C 50% 7.4 mph ESE11.9 kmh ESE 16.5 mph26.6 kmh 30.04 in1017.3 mb 0.00 in0.0 mm 0.00 in0.0 mm 0.00 in0.0 mm
12:20 PM 75.7°F24.3°C 55.8°F13.2°C 50% 6.6 mph ESE10.6 kmh ESE 20.8 mph33.5 kmh 30.04 in1017.3 mb 0.00 in0.0 mm 0.00 in0.0 mm 0.00 in0.0 mm
12:30 PM 75.6°F24.2°C 55.6°F13.1°C 50% 6.1 mph SE9.8 kmh SE 17.2 mph27.7 kmh 30.04 in1017.3 mb 0.00 in0.0 mm 0.00 in0.0 mm 0.00 in0.0 mm
12:40 PM 75.2°F24.0°C 55.3°F12.9°C 50% 6.9 mph SE11.1 kmh SE 20.8 mph33.5 kmh 30.04 in1017.3 mb 0.00 in0.0 mm 0.00 in0.0 mm 0.00 in0.0 mm
12:50 PM 74.8°F23.8°C 54.4°F12.4°C 49% 6.8 mph ESE10.9 kmh ESE 16.5 mph26.6 kmh 30.01 in1016.3 mb 0.00 in0.0 mm 0.00 in0.0 mm 0.00 in0.0 mm
01:00 PM 74.1°F23.4°C 54.3°F12.4°C 50% 7.3 mph E11.7 kmh E 15.7 mph25.3 kmh 30.01 in1016.3 mb 0.00 in0.0 mm 0.00 in0.0 mm 0.00 in0.0 mm
01:10 PM 73.6°F23.1°C 53.8°F12.1°C 50% 7.9 mph E12.7 kmh E 16.1 mph25.9 kmh 30.01 in1016.3 mb 0.00 in0.0 mm 0.00 in0.0 mm 0.00 in0.0 mm
01:20 PM 73.6°F23.1°C 53.8°F12.1°C 50% 7.7 mph E12.4 kmh E 15.4 mph24.8 kmh 30.01 in1016.3 mb 0.00 in0.0 mm 0.00 in0.0 mm 0.00 in0.0 mm
01:30 PM 73.6°F23.1°C 53.2°F11.8°C 49% 6.8 mph SE10.9 kmh SE 16.8 mph27.0 kmh 30.04 in1017.3 mb 0.00 in0.0 mm 0.00 in0.0 mm 0.00 in0.0 mm
01:40 PM 73.9°F23.3°C 54.7°F12.6°C 51% 4.2 mph SE6.8 kmh SE 11.8 mph19.0 kmh 30.04 in1017.3 mb 0.00 in0.0 mm 0.00 in0.0 mm 0.00 in0.0 mm
01:50 PM 73.8°F23.2°C 54.0°F12.2°C 50% 4.4 mph SE7.1 kmh SE 10.4 mph16.7 kmh 30.04 in1017.3 mb 0.00 in0.0 mm 0.00 in0.0 mm 0.00 in0.0 mm
02:00 PM 73.6°F23.1°C 53.8°F12.1°C 50% 4.8 mph ESE7.7 kmh ESE 9.7 mph15.6 kmh 30.01 in1016.3 mb 0.00 in0.0 mm 0.00 in0.0 mm 0.00 in0.0 mm
02:10 PM 73.2°F22.9°C 54.5°F12.5°C 52% 2.8 mph SE4.5 kmh SE 10.4 mph16.7 kmh 30.01 in1016.3 mb 0.00 in0.0 mm 0.00 in0.0 mm 0.00 in0.0 mm
02:20 PM 72.7°F22.6°C 54.0°F12.2°C 52% 4.2 mph S6.8 kmh S 13.6 mph21.9 kmh 30.04 in1017.3 mb 0.00 in0.0 mm 0.00 in0.0 mm 0.00 in0.0 mm
02:30 PM 71.8°F22.1°C 52.7°F11.5°C 51% 5.2 mph SSE8.4 kmh SSE 20.8 mph33.5 kmh 30.04 in1017.3 mb 0.00 in0.0 mm 0.00 in0.0 mm 0.00 in0.0 mm
02:40 PM 70.9°F21.6°C 51.8°F11.0°C 51% 4.6 mph SE7.4 kmh SE 17.9 mph28.8 kmh 30.04 in1017.3 mb 0.00 in0.0 mm 0.00 in0.0 mm 0.00 in0.0 mm
02:50 PM 69.8°F21.0°C 51.4°F10.8°C 52% 5.4 mph SE8.7 kmh SE 14.0 mph22.5 kmh 30.04 in1017.3 mb 0.00 in0.0 mm 0.00 in0.0 mm 0.00 in0.0 mm
03:00 PM 68.7°F20.4°C 51.4°F10.8°C 54% 7.8 mph SE12.6 kmh SE 19.7 mph31.7 kmh 30.04 in1017.3 mb 0.00 in0.0 mm 0.00 in0.0 mm 0.00 in0.0 mm
03:10 PM 67.6°F19.8°C 52.3°F11.3°C 58% 6.6 mph ESE10.6 kmh ESE 16.5 mph26.6 kmh 30.04 in1017.3 mb 0.00 in0.0 mm 0.00 in0.0 mm 0.00 in0.0 mm
03:20 PM 66.2°F19.0°C 52.8°F11.6°C 62% 8.3 mph ESE13.4 kmh ESE 16.1 mph25.9 kmh 30.04 in1017.3 mb 0.00 in0.0 mm 0.00 in0.0 mm 0.00 in0.0 mm
03:30 PM 64.9°F18.3°C 53.7°F12.1°C 67% 7.6 mph ESE12.2 kmh ESE 17.2 mph27.7 kmh 30.01 in1016.3 mb 0.00 in0.0 mm 0.00 in0.0 mm 0.00 in0.0 mm
03:40 PM 63.9°F17.7°C 54.7°F12.6°C 72% 8.8 mph E14.2 kmh E 17.2 mph27.7 kmh 30.01 in1016.3 mb 0.00 in0.0 mm 0.00 in0.0 mm 0.00 in0.0 mm
03:50 PM 62.6°F17.0°C 54.6°F12.6°C 75% 10.2 mph E16.4 kmh E 24.7 mph39.8 kmh 29.98 in1015.2 mb 0.00 in0.0 mm 0.00 in0.0 mm 0.00 in0.0 mm
04:00 PM 61.9°F16.6°C 54.2°F12.3°C 76% 12.2 mph E19.6 kmh E 26.1 mph42.0 kmh 29.95 in1014.2 mb 0.00 in0.0 mm 0.00 in0.0 mm 0.00 in0.0 mm
04:10 PM 61.7°F16.5°C 54.8°F12.7°C 78% 11.0 mph E17.7 kmh E 33.3 mph53.6 kmh 29.95 in1014.2 mb 0.00 in0.0 mm 0.00 in0.0 mm 0.00 in0.0 mm
04:20 PM 61.7°F16.5°C 54.4°F12.4°C 77% 7.9 mph E12.7 kmh E 15.7 mph25.3 kmh 29.98 in1015.2 mb 0.00 in0.0 mm 0.00 in0.0 mm 0.00 in0.0 mm
04:30 PM 61.7°F16.5°C 54.4°F12.4°C 77% 5.6 mph E9.0 kmh E 12.5 mph20.1 kmh 29.98 in1015.2 mb 0.00 in0.0 mm 0.00 in0.0 mm 0.00 in0.0 mm
04:40 PM 62.1°F16.7°C 54.8°F12.7°C 77% 4.7 mph E7.6 kmh E 14.0 mph22.5 kmh 29.98 in1015.2 mb 0.00 in0.0 mm 0.00 in0.0 mm 0.00 in0.0 mm
04:50 PM 62.2°F16.8°C 54.2°F12.3°C 75% 1.9 mph ENE3.1 kmh ENE 7.9 mph12.7 kmh 29.98 in1015.2 mb 0.00 in0.0 mm 0.00 in0.0 mm 0.00 in0.0 mm
05:00 PM 62.4°F16.9°C 54.0°F12.2°C 74% 2.8 mph ENE4.5 kmh ENE 7.5 mph12.1 kmh 29.95 in1014.2 mb 0.00 in0.0 mm 0.00 in0.0 mm 0.00 in0.0 mm
05:10 PM 62.6°F17.0°C 53.8°F12.1°C 73% 3.8 mph E6.1 kmh E 11.8 mph19.0 kmh 29.95 in1014.2 mb 0.00 in0.0 mm 0.00 in0.0 mm 0.00 in0.0 mm
05:20 PM 62.6°F17.0°C 53.8°F12.1°C 73% 3.3 mph E5.3 kmh E 9.3 mph15.0 kmh 29.98 in1015.2 mb 0.00 in0.0 mm 0.00 in0.0 mm 0.00 in0.0 mm
05:30 PM 62.4°F16.9°C 54.8°F12.7°C 76% 5.6 mph E9.0 kmh E 10.0 mph16.1 kmh 29.98 in1015.2 mb 0.00 in0.0 mm 0.00 in0.0 mm 0.00 in0.0 mm
05:40 PM 62.6°F17.0°C 54.6°F12.6°C 75% 6.1 mph E9.8 kmh E 12.5 mph20.1 kmh 29.98 in1015.2 mb 0.00 in0.0 mm 0.00 in0.0 mm 0.00 in0.0 mm
05:50 PM 62.6°F17.0°C 54.2°F12.3°C 74% 5.2 mph E8.4 kmh E 11.8 mph19.0 kmh 29.95 in1014.2 mb 0.00 in0.0 mm 0.00 in0.0 mm 0.00 in0.0 mm
06:00 PM 62.6°F17.0°C 53.8°F12.1°C 73% 4.6 mph E7.4 kmh E 13.6 mph21.9 kmh 29.98 in1015.2 mb 0.00 in0.0 mm 0.00 in0.0 mm 0.00 in0.0 mm
06:10 PM 62.6°F17.0°C 53.4°F11.9°C 72% 3.8 mph E6.1 kmh E 12.5 mph20.1 kmh 29.98 in1015.2 mb 0.00 in0.0 mm 0.00 in0.0 mm 0.00 in0.0 mm
06:20 PM 62.6°F17.0°C 53.1°F11.7°C 71% 5.6 mph E9.0 kmh E 10.0 mph16.1 kmh 29.95 in1014.2 mb 0.00 in0.0 mm 0.00 in0.0 mm 0.00 in0.0 mm
06:30 PM 62.6°F17.0°C 53.1°F11.7°C 71% 6.2 mph E10.0 kmh E 12.5 mph20.1 kmh 29.95 in1014.2 mb 0.00 in0.0 mm 0.00 in0.0 mm 0.00 in0.0 mm
06:40 PM 62.6°F17.0°C 53.1°F11.7°C 71% 6.5 mph E10.5 kmh E 13.6 mph21.9 kmh 29.95 in1014.2 mb 0.00 in0.0 mm 0.00 in0.0 mm 0.00 in0.0 mm
06:50 PM 63.0°F17.2°C 53.0°F11.7°C 70% 4.6 mph E7.4 kmh E 14.0 mph22.5 kmh 29.95 in1014.2 mb 0.00 in0.0 mm 0.00 in0.0 mm 0.00 in0.0 mm
07:00 PM 63.3°F17.4°C 52.6°F11.4°C 68% 2.0 mph E3.2 kmh E 6.8 mph10.9 kmh 29.92 in1013.2 mb 0.00 in0.0 mm 0.00 in0.0 mm 0.00 in0.0 mm
07:10 PM 63.3°F17.4°C 52.6°F11.4°C 68% 4.1 mph E6.6 kmh E 10.0 mph16.1 kmh 29.92 in1013.2 mb 0.00 in0.0 mm 0.00 in0.0 mm 0.00 in0.0 mm
07:20 PM 63.1°F17.3°C 52.0°F11.1°C 67% 5.3 mph ESE8.5 kmh ESE 12.9 mph20.8 kmh 29.95 in1014.2 mb 0.00 in0.0 mm 0.00 in0.0 mm 0.00 in0.0 mm
07:30 PM 63.0°F17.2°C 51.8°F11.0°C 67% 5.4 mph E8.7 kmh E 12.5 mph20.1 kmh 29.95 in1014.2 mb 0.00 in0.0 mm 0.00 in0.0 mm 0.00 in0.0 mm
07:40 PM 62.6°F17.0°C 51.5°F10.8°C 67% 4.7 mph E7.6 kmh E 10.4 mph16.7 kmh 29.95 in1014.2 mb 0.00 in0.0 mm 0.00 in0.0 mm 0.00 in0.0 mm
07:50 PM 62.6°F17.0°C 51.5°F10.8°C 67% 4.8 mph E7.7 kmh E 10.0 mph16.1 kmh 29.95 in1014.2 mb 0.00 in0.0 mm 0.00 in0.0 mm 0.00 in0.0 mm
08:00 PM 62.4°F16.9°C 51.3°F10.7°C 67% 4.7 mph E7.6 kmh E 12.9 mph20.8 kmh 29.95 in1014.2 mb 0.00 in0.0 mm 0.00 in0.0 mm 0.00 in0.0 mm
08:10 PM 62.2°F16.8°C 51.1°F10.6°C 67% 6.7 mph E10.8 kmh E 12.9 mph20.8 kmh 29.95 in1014.2 mb 0.00 in0.0 mm 0.00 in0.0 mm 0.00 in0.0 mm
08:20 PM 62.1°F16.7°C 51.0°F10.6°C 67% 6.1 mph E9.8 kmh E 13.6 mph21.9 kmh 29.95 in1014.2 mb 0.00 in0.0 mm 0.00 in0.0 mm 0.00 in0.0 mm
08:30 PM 61.9°F16.6°C 50.8°F10.4°C 67% 6.8 mph E10.9 kmh E 16.8 mph27.0 kmh 29.92 in1013.2 mb 0.00 in0.0 mm 0.00 in0.0 mm 0.00 in0.0 mm
08:40 PM 61.9°F16.6°C 50.4°F10.2°C 66% 8.2 mph E13.2 kmh E 20.0 mph32.2 kmh 29.92 in1013.2 mb 0.00 in0.0 mm 0.00 in0.0 mm 0.00 in0.0 mm
08:50 PM 61.9°F16.6°C 50.0°F10.0°C 65% 6.6 mph E10.6 kmh E 19.3 mph31.1 kmh 29.95 in1014.2 mb 0.00 in0.0 mm 0.00 in0.0 mm 0.00 in0.0 mm
09:00 PM 61.5°F16.4°C 50.1°F10.1°C 66% 7.1 mph E11.4 kmh E 12.5 mph20.1 kmh 29.95 in1014.2 mb 0.00 in0.0 mm 0.00 in0.0 mm 0.00 in0.0 mm
09:10 PM 61.3°F16.3°C 49.9°F9.9°C 66% 7.0 mph E11.3 kmh E 15.4 mph24.8 kmh 29.95 in1014.2 mb 0.00 in0.0 mm 0.00 in0.0 mm 0.00 in0.0 mm
09:20 PM 61.2°F16.2°C 50.1°F10.1°C 67% 6.4 mph E10.3 kmh E 12.2 mph19.6 kmh 29.95 in1014.2 mb 0.00 in0.0 mm 0.00 in0.0 mm 0.00 in0.0 mm
09:30 PM 61.2°F16.2°C 50.1°F10.1°C 67% 4.7 mph E7.6 kmh E 16.1 mph25.9 kmh 29.95 in1014.2 mb 0.00 in0.0 mm 0.00 in0.0 mm 0.00 in0.0 mm
09:40 PM 61.3°F16.3°C 50.3°F10.2°C 67% 5.7 mph E9.2 kmh E 11.5 mph18.5 kmh 29.95 in1014.2 mb 0.00 in0.0 mm 0.00 in0.0 mm 0.00 in0.0 mm
09:50 PM 61.3°F16.3°C 50.3°F10.2°C 67% 5.9 mph E9.5 kmh E 12.9 mph20.8 kmh 29.95 in1014.2 mb 0.00 in0.0 mm 0.00 in0.0 mm 0.00 in0.0 mm
10:00 PM 61.2°F16.2°C 50.1°F10.1°C 67% 3.4 mph E5.5 kmh E 9.7 mph15.6 kmh 29.95 in1014.2 mb 0.00 in0.0 mm 0.00 in0.0 mm 0.00 in0.0 mm
10:10 PM 61.0°F16.1°C 49.9°F9.9°C 67% 4.5 mph E7.2 kmh E 10.0 mph16.1 kmh 29.95 in1014.2 mb 0.00 in0.0 mm 0.00 in0.0 mm 0.00 in0.0 mm
10:20 PM 60.8°F16.0°C 49.8°F9.9°C 67% 1.1 mph E1.8 kmh E 9.3 mph15.0 kmh 29.95 in1014.2 mb 0.00 in0.0 mm 0.00 in0.0 mm 0.00 in0.0 mm
10:30 PM 60.8°F16.0°C 50.2°F10.1°C 68% 0.6 mph E1.0 kmh E 5.4 mph8.7 kmh 29.95 in1014.2 mb 0.00 in0.0 mm 0.00 in0.0 mm 0.00 in0.0 mm
10:40 PM 61.0°F16.1°C 50.3°F10.2°C 68% 0.5 mph SE0.8 kmh SE 6.4 mph10.3 kmh 29.95 in1014.2 mb 0.00 in0.0 mm 0.00 in0.0 mm 0.00 in0.0 mm
10:50 PM 60.8°F16.0°C 50.6°F10.3°C 69% Calm Calm -- 29.95 in1014.2 mb 0.00 in0.0 mm 0.00 in0.0 mm 0.00 in0.0 mm
11:00 PM 60.8°F16.0°C 51.0°F10.6°C 70% 0.1 mph E0.2 kmh E 2.5 mph4.0 kmh 29.95 in1014.2 mb 0.00 in0.0 mm 0.00 in0.0 mm 0.00 in0.0 mm
11:10 PM 60.8°F16.0°C 51.0°F10.6°C 70% 0.5 mph ESE0.8 kmh ESE 3.9 mph6.3 kmh 29.95 in1014.2 mb 0.00 in0.0 mm 0.00 in0.0 mm 0.00 in0.0 mm
11:20 PM 60.8°F16.0°C 51.0°F10.6°C 70% 0.2 mph E0.3 kmh E 3.9 mph6.3 kmh 29.98 in1015.2 mb 0.00 in0.0 mm 0.00 in0.0 mm 0.00 in0.0 mm
11:30 PM 60.8°F16.0°C 51.3°F10.7°C 71% 0.1 mph E0.2 kmh E 1.8 mph2.9 kmh 29.98 in1015.2 mb 0.00 in0.0 mm 0.00 in0.0 mm 0.00 in0.0 mm
11:40 PM 60.8°F16.0°C 51.3°F10.7°C 71% 1.0 mph E1.6 kmh E 6.1 mph9.8 kmh 29.98 in1015.2 mb 0.00 in0.0 mm 0.00 in0.0 mm 0.00 in0.0 mm
11:50 PM 60.8°F16.0°C 51.3°F10.7°C 71% 0.4 mph E0.6 kmh E 4.3 mph6.9 kmh 29.98 in1015.2 mb 0.00 in0.0 mm 0.00 in0.0 mm 0.00 in0.0 mm